Time;durP1;ratioP1;P1;durP2;ratioP2;P2;SDS_P1;SDS_P2;PMS_P1;PMS_P2;Temp;Humidity;BMP_temperature;BMP_pressure;BME280_temperature;BME280_humidity;BME280_pressure;Samples;Min_cycle;Max_cycle;Signal;HPM_P1;HPM_P2
2023/04/21 00:01:23;;;;;;;22.42;11.55;;;11.20;99.90;;;;;;5070828;28;20031;-70
2023/04/21 00:03:49;;;;;;;19.90;11.27;;;11.20;99.90;;;;;;5070726;28;20020;-71
2023/04/21 00:06:21;;;;;;;17.50;11.07;;;11.20;99.90;;;;;;5070974;28;20331;-71
2023/04/21 00:08:47;;;;;;;17.50;11.02;;;11.20;99.90;;;;;;5071339;28;20040;-72
2023/04/21 00:11:14;;;;;;;20.85;10.98;;;11.20;99.90;;;;;;5071316;28;20016;-70
2023/04/21 00:13:39;;;;;;;23.63;10.38;;;11.30;99.90;;;;;;5071192;28;20025;-71
2023/04/21 00:16:06;;;;;;;18.73;10.27;;;11.20;99.90;;;;;;5070886;28;20336;-70
2023/04/21 00:18:32;;;;;;;18.25;10.45;;;11.20;99.90;;;;;;5070286;28;20028;-71
2023/04/21 00:20:57;;;;;;;22.73;10.20;;;11.30;99.90;;;;;;5071298;28;20070;-71
2023/04/21 00:23:23;;;;;;;19.70;10.65;;;11.20;99.90;;;;;;5071181;28;20040;-71
2023/04/21 00:25:48;;;;;;;22.38;11.32;;;11.20;99.90;;;;;;5070975;28;20028;-71
2023/04/21 00:28:14;;;;;;;19.77;10.90;;;11.20;99.90;;;;;;5070410;28;20127;-71
2023/04/21 00:30:40;;;;;;;17.52;11.15;;;11.10;99.90;;;;;;5071031;28;20037;-71
2023/04/21 00:33:05;;;;;;;17.45;10.55;;;11.10;99.90;;;;;;5069869;28;20055;-71
2023/04/21 00:35:31;;;;;;;20.33;10.32;;;11.10;99.90;;;;;;5070905;28;20035;-71
2023/04/21 00:37:57;;;;;;;18.90;10.25;;;11.10;99.90;;;;;;5070891;28;20389;-70
2023/04/21 00:40:22;;;;;;;22.00;10.90;;;11.10;99.90;;;;;;5071288;28;20024;-70
2023/04/21 00:42:48;;;;;;;20.20;10.63;;;11.10;99.90;;;;;;5071173;28;20124;-71
2023/04/21 00:45:14;;;;;;;17.63;9.57;;;11.10;99.90;;;;;;5071155;28;20112;-70
2023/04/21 00:47:40;;;;;;;19.40;9.77;;;11.10;99.90;;;;;;5071167;28;20032;-70
2023/04/21 00:50:06;;;;;;;21.58;9.90;;;11.10;99.90;;;;;;5070876;28;20029;-69
2023/04/21 00:52:33;;;;;;;22.27;10.80;;;11.10;99.90;;;;;;5071134;28;20032;-71
2023/04/21 00:54:59;;;;;;;23.50;9.88;;;11.10;99.90;;;;;;5070903;28;20097;-71
2023/04/21 00:57:27;;;;;;;18.85;9.45;;;11.10;99.90;;;;;;5070935;28;20024;-72
2023/04/21 00:59:53;;;;;;;21.60;9.77;;;11.10;99.90;;;;;;5069819;28;20454;-71
2023/04/21 01:02:20;;;;;;;18.48;9.88;;;11.00;99.90;;;;;;5070812;28;20028;-71
2023/04/21 01:04:46;;;;;;;18.42;9.45;;;11.00;99.90;;;;;;5070974;28;20021;-70
2023/04/21 01:07:12;;;;;;;18.63;9.05;;;11.10;99.90;;;;;;5071066;28;20055;-71
2023/04/21 01:09:37;;;;;;;21.33;9.80;;;11.10;99.90;;;;;;5070725;28;20032;-71
2023/04/21 01:12:06;;;;;;;22.05;10.25;;;11.00;99.90;;;;;;5070709;28;20055;-71
2023/04/21 01:14:33;;;;;;;20.08;9.93;;;11.00;99.90;;;;;;5069767;28;20025;-71
2023/04/21 01:16:58;;;;;;;17.27;8.70;;;11.00;99.90;;;;;;5074632;28;20031;-70
2023/04/21 01:19:27;;;;;;;20.02;8.50;;;11.20;99.90;;;;;;5075080;28;20024;-70
2023/04/21 01:21:56;;;;;;;17.25;8.35;;;11.10;99.90;;;;;;5073625;28;20047;-70
2023/04/21 01:24:23;;;;;;;21.00;8.88;;;11.10;99.90;;;;;;5074402;28;20150;-70
2023/04/21 01:26:49;;;;;;;19.75;9.10;;;11.00;99.90;;;;;;5073564;28;20040;-71
2023/04/21 01:29:16;;;;;;;16.55;8.77;;;11.10;99.90;;;;;;5074525;28;20097;-71
2023/04/21 01:31:42;;;;;;;14.45;8.55;;;11.00;99.90;;;;;;5074179;28;20076;-71
2023/04/21 01:34:08;;;;;;;19.67;9.10;;;11.00;99.90;;;;;;5074705;28;20021;-72
2023/04/21 01:36:37;;;;;;;16.58;9.15;;;11.00;99.90;;;;;;5088765;28;20047;-70
2023/04/21 01:39:03;;;;;;;18.90;8.30;;;11.00;99.90;;;;;;5094443;28;20111;-71
2023/04/21 01:41:29;;;;;;;21.85;9.50;;;11.00;99.90;;;;;;5094442;28;20043;-71
2023/04/21 01:43:55;;;;;;;21.42;9.20;;;11.10;99.90;;;;;;5094600;28;20473;-72
2023/04/21 01:46:20;;;;;;;20.45;8.98;;;11.00;99.90;;;;;;5094847;28;20090;-72
2023/04/21 01:48:46;;;;;;;19.85;8.88;;;10.90;99.90;;;;;;5094462;28;20036;-71
2023/04/21 01:51:12;;;;;;;24.20;9.10;;;11.00;99.90;;;;;;5094518;28;20032;-71
2023/04/21 01:53:37;;;;;;;17.85;8.90;;;10.90;99.90;;;;;;5093331;28;20113;-71
2023/04/21 01:56:03;;;;;;;17.25;8.98;;;10.90;99.90;;;;;;5094326;28;20107;-72
2023/04/21 01:58:29;;;;;;;17.70;8.13;;;10.90;99.90;;;;;;5094613;28;20365;-72
2023/04/21 02:00:54;;;;;;;17.00;8.30;;;10.90;99.90;;;;;;5094073;28;20043;-71
2023/04/21 02:03:20;;;;;;;17.75;8.30;;;10.80;99.90;;;;;;5093172;28;20036;-71
2023/04/21 02:05:46;;;;;;;12.60;7.57;;;10.90;99.90;;;;;;5094144;28;20374;-71
2023/04/21 02:08:11;;;;;;;22.80;8.77;;;10.90;99.90;;;;;;5093860;28;20123;-71
2023/04/21 02:10:37;;;;;;;15.15;8.27;;;10.90;99.90;;;;;;5093911;28;20024;-71
2023/04/21 02:13:03;;;;;;;18.70;7.78;;;10.90;99.90;;;;;;5094578;28;20039;-71
2023/04/21 02:15:28;;;;;;;16.42;8.18;;;10.90;99.90;;;;;;5093920;28;20028;-71
2023/04/21 02:17:54;;;;;;;16.27;7.45;;;11.00;99.90;;;;;;5093812;28;20473;-71
2023/04/21 02:20:20;;;;;;;20.70;7.45;;;11.00;99.90;;;;;;5093815;28;20038;-70
2023/04/21 02:22:45;;;;;;;20.92;7.95;;;11.10;99.90;;;;;;5093604;28;20039;-71
2023/04/21 02:25:11;;;;;;;15.32;7.43;;;11.10;99.90;;;;;;5093376;28;20028;-71
2023/04/21 02:27:36;;;;;;;13.52;6.90;;;11.10;99.90;;;;;;5092438;28;20043;-71
2023/04/21 02:30:02;;;;;;;16.55;7.60;;;11.10;99.90;;;;;;5093385;28;20032;-71
2023/04/21 02:32:28;;;;;;;14.73;7.85;;;11.10;99.90;;;;;;5093347;28;20040;-71
2023/04/21 02:34:54;;;;;;;14.15;7.40;;;11.10;99.90;;;;;;5093499;28;20028;-72
2023/04/21 02:37:20;;;;;;;16.27;7.40;;;11.30;99.90;;;;;;5094315;28;20086;-71
2023/04/21 02:39:45;;;;;;;12.35;7.03;;;11.20;99.90;;;;;;5093386;28;20028;-70
2023/04/21 02:42:11;;;;;;;17.92;7.13;;;11.20;99.90;;;;;;5093274;28;20112;-70
2023/04/21 02:44:37;;;;;;;15.70;7.25;;;11.10;99.90;;;;;;5093412;28;20025;-71
2023/04/21 02:47:03;;;;;;;15.98;6.82;;;11.20;99.90;;;;;;5093478;28;20024;-70
2023/04/21 02:49:29;;;;;;;15.20;7.47;;;11.20;99.90;;;;;;5092550;28;20024;-70
2023/04/21 02:51:55;;;;;;;19.42;7.47;;;11.20;99.90;;;;;;5093156;28;20111;-71
2023/04/21 02:54:20;;;;;;;15.13;7.00;;;11.20;99.90;;;;;;5093375;28;20384;-70
2023/04/21 02:56:46;;;;;;;13.52;7.45;;;11.10;99.90;;;;;;5093316;28;20032;-71
2023/04/21 02:59:15;;;;;;;12.23;6.90;;;11.10;99.90;;;;;;5092184;28;20032;-71
2023/04/21 03:01:40;;;;;;;15.60;6.68;;;11.10;99.90;;;;;;5092979;28;20031;-72
2023/04/21 03:04:06;;;;;;;13.68;7.28;;;11.20;99.90;;;;;;5093705;28;20016;-70
2023/04/21 03:06:32;;;;;;;15.90;7.13;;;11.10;99.90;;;;;;5092832;28;20408;-70
2023/04/21 03:08:58;;;;;;;15.13;7.45;;;11.10;99.90;;;;;;5092773;28;20032;-70
2023/04/21 03:11:23;;;;;;;15.80;7.45;;;11.10;99.90;;;;;;5092831;28;20119;-71
2023/04/21 03:13:49;;;;;;;12.43;6.97;;;11.10;99.90;;;;;;5092640;28;20434;-71
2023/04/21 03:16:15;;;;;;;15.93;7.18;;;11.00;99.90;;;;;;5093134;28;20017;-70
2023/04/21 03:18:40;;;;;;;20.13;7.45;;;11.10;99.90;;;;;;5092573;28;20438;-71
2023/04/21 03:21:06;;;;;;;12.73;6.43;;;11.10;99.90;;;;;;5092615;28;20092;-71
2023/04/21 03:23:31;;;;;;;16.58;6.93;;;11.00;99.90;;;;;;5092492;28;20032;-70
2023/04/21 03:25:57;;;;;;;21.30;6.63;;;11.00;99.90;;;;;;5092567;28;20025;-70
2023/04/21 03:28:23;;;;;;;13.15;6.90;;;11.00;99.90;;;;;;5092877;28;20042;-70
2023/04/21 03:30:48;;;;;;;11.63;6.75;;;11.00;99.90;;;;;;5092693;28;20558;-70
2023/04/21 03:33:14;;;;;;;17.33;6.97;;;11.00;99.90;;;;;;5092279;28;20092;-71
2023/04/21 03:35:39;;;;;;;14.05;6.47;;;11.00;99.90;;;;;;5092210;28;20048;-71
2023/04/21 03:38:05;;;;;;;19.23;8.00;;;11.00;99.90;;;;;;5092036;28;20169;-71
2023/04/21 03:40:31;;;;;;;18.52;6.95;;;11.00;99.90;;;;;;5092573;28;20047;-72
2023/04/21 03:42:56;;;;;;;15.77;6.63;;;11.00;99.90;;;;;;5092365;28;20107;-71
2023/04/21 03:45:22;;;;;;;8.88;5.93;;;11.00;99.90;;;;;;5092281;28;20024;-71
2023/04/21 03:47:52;;;;;;;20.45;7.15;;;11.00;99.90;;;;;;5090938;28;20032;-71
2023/04/21 03:50:18;;;;;;;16.75;7.03;;;11.00;99.90;;;;;;5092030;28;20366;-70
2023/04/21 03:52:44;;;;;;;17.88;6.68;;;11.00;99.90;;;;;;5091845;28;20028;-71
2023/04/21 03:55:10;;;;;;;13.73;6.95;;;11.00;99.90;;;;;;5092890;28;20055;-69
2023/04/21 03:57:39;;;;;;;15.68;6.50;;;11.10;99.90;;;;;;5092013;28;20094;-71
2023/04/21 04:00:08;;;;;;;14.20;6.75;;;11.10;99.90;;;;;;5091944;28;20437;-70
2023/04/21 04:02:34;;;;;;;17.20;6.70;;;11.10;99.90;;;;;;5091958;28;20150;-70
2023/04/21 04:05:00;;;;;;;15.43;7.03;;;11.10;99.90;;;;;;5091879;28;20028;-71
2023/04/21 04:07:25;;;;;;;17.30;6.82;;;11.10;99.90;;;;;;5091221;28;20020;-70
2023/04/21 04:09:51;;;;;;;17.67;7.15;;;11.00;99.90;;;;;;5091649;28;20089;-70
2023/04/21 04:12:16;;;;;;;14.82;7.90;;;11.00;99.90;;;;;;5091762;28;20111;-71
2023/04/21 04:14:42;;;;;;;16.30;6.68;;;11.00;99.90;;;;;;5091884;28;20020;-71
2023/04/21 04:17:08;;;;;;;14.77;6.68;;;11.00;99.90;;;;;;5091713;28;20077;-71
2023/04/21 04:19:33;;;;;;;18.13;7.07;;;11.00;99.90;;;;;;5091678;28;20020;-71
2023/04/21 04:22:00;;;;;;;16.70;6.05;;;11.10;99.90;;;;;;5091874;28;20032;-72
2023/04/21 04:24:25;;;;;;;16.27;7.40;;;11.00;99.90;;;;;;5091465;28;20032;-71
2023/04/21 04:26:54;;;;;;;14.40;7.10;;;11.10;99.90;;;;;;5091657;28;20461;-70
2023/04/21 04:29:21;;;;;;;15.32;6.85;;;11.00;99.90;;;;;;5091429;28;20040;-70
2023/04/21 04:31:50;;;;;;;16.92;7.03;;;11.00;99.90;;;;;;5091215;28;20420;-71
2023/04/21 04:34:16;;;;;;;15.23;6.50;;;11.00;99.90;;;;;;5091914;28;20035;-71
2023/04/21 04:36:42;;;;;;;16.02;6.80;;;11.00;99.90;;;;;;5091425;28;20029;-71
2023/04/21 04:39:09;;;;;;;18.35;7.00;;;11.00;99.90;;;;;;5090245;28;20036;-71
2023/04/21 04:41:35;;;;;;;13.40;6.68;;;11.00;99.90;;;;;;5091317;28;20311;-72
2023/04/21 04:44:03;;;;;;;21.17;7.28;;;11.00;99.90;;;;;;5091220;28;20544;-72
2023/04/21 04:46:32;;;;;;;20.85;7.78;;;11.00;99.90;;;;;;5091600;28;20019;-70
2023/04/21 04:49:00;;;;;;;16.65;6.50;;;11.00;99.90;;;;;;5090002;28;20085;-71
2023/04/21 04:51:25;;;;;;;10.25;6.75;;;11.00;99.90;;;;;;5090887;28;20397;-71
2023/04/21 04:53:51;;;;;;;19.42;6.53;;;11.00;99.90;;;;;;5091108;28;20046;-71
2023/04/21 04:56:17;;;;;;;12.70;6.10;;;11.00;99.90;;;;;;5091136;28;20458;-70
2023/04/21 04:58:45;;;;;;;15.60;6.07;;;11.10;99.90;;;;;;5091923;28;20035;-70
2023/04/21 05:01:15;;;;;;;15.77;7.07;;;11.00;99.90;;;;;;5091327;28;20066;-70
2023/04/21 05:03:42;;;;;;;12.93;6.82;;;11.00;99.90;;;;;;5090910;28;20059;-70
2023/04/21 05:06:08;;;;;;;18.70;7.07;;;11.00;99.90;;;;;;5090937;28;20166;-71
2023/04/21 05:08:34;;;;;;;16.70;6.97;;;10.90;99.90;;;;;;5090898;28;20450;-71
2023/04/21 05:11:00;;;;;;;19.55;7.10;;;11.00;99.90;;;;;;5091038;28;20073;-71
2023/04/21 05:13:26;;;;;;;16.95;6.75;;;11.00;99.90;;;;;;5090778;28;20041;-70
2023/04/21 05:16:01;;;;;;;21.90;7.05;;;11.00;99.90;;;;;;5091140;28;20028;-70
2023/04/21 05:18:27;;;;;;;17.33;7.15;;;11.00;99.90;;;;;;5090931;28;20040;-70
2023/04/21 05:20:53;;;;;;;16.88;7.32;;;11.00;99.90;;;;;;5091534;28;20393;-68
2023/04/21 05:23:19;;;;;;;25.35;8.38;;;11.00;99.90;;;;;;5090604;28;20032;-70
2023/04/21 05:25:45;;;;;;;18.30;7.03;;;11.10;99.90;;;;;;5090736;28;20039;-69
2023/04/21 05:28:11;;;;;;;18.55;6.68;;;11.00;99.90;;;;;;5090247;28;20028;-69
2023/04/21 05:30:37;;;;;;;18.67;6.90;;;11.20;99.90;;;;;;5089589;28;20032;-69
2023/04/21 05:33:02;;;;;;;16.05;7.03;;;11.00;99.90;;;;;;5090693;28;20369;-69
2023/04/21 05:35:32;;;;;;;18.67;6.95;;;11.10;99.90;;;;;;5090490;28;20028;-70
2023/04/21 05:37:58;;;;;;;19.08;6.45;;;11.10;99.90;;;;;;5090938;28;20061;-69
2023/04/21 05:40:24;;;;;;;17.58;7.57;;;11.10;99.90;;;;;;5091498;28;20016;-70
2023/04/21 05:42:49;;;;;;;15.98;6.28;;;11.10;99.90;;;;;;5091931;28;20104;-71
2023/04/21 05:45:15;;;;;;;17.60;6.43;;;11.10;99.90;;;;;;5092814;28;20025;-71
2023/04/21 05:47:41;;;;;;;13.57;6.30;;;11.10;99.90;;;;;;5091259;28;20027;-71
2023/04/21 05:50:07;;;;;;;24.10;6.72;;;11.20;99.90;;;;;;5090986;28;20086;-70
2023/04/21 05:52:33;;;;;;;17.35;6.20;;;11.20;99.90;;;;;;5091070;28;20454;-70
2023/04/21 05:55:00;;;;;;;17.45;6.18;;;11.30;99.90;;;;;;5091170;28;20048;-70
2023/04/21 05:57:26;;;;;;;15.90;6.82;;;11.40;99.90;;;;;;5072842;28;20102;-70
2023/04/21 05:59:51;;;;;;;16.73;5.97;;;11.40;99.90;;;;;;5090522;28;20059;-68
2023/04/21 06:02:17;;;;;;;20.40;6.68;;;11.50;99.90;;;;;;5084625;28;20032;-68
2023/04/21 06:04:43;;;;;;;16.90;7.20;;;11.50;99.90;;;;;;5073789;28;20032;-70
2023/04/21 06:07:12;;;;;;;14.10;6.68;;;11.60;99.90;;;;;;5074454;28;20036;-70
2023/04/21 06:09:41;;;;;;;11.63;6.50;;;11.70;99.90;;;;;;5074055;28;20053;-70
2023/04/21 06:12:07;;;;;;;16.13;6.30;;;11.70;99.90;;;;;;5073864;28;20474;-69
2023/04/21 06:14:32;;;;;;;15.90;7.13;;;11.80;99.90;;;;;;5072357;28;20039;-70
2023/04/21 06:16:58;;;;;;;14.95;7.07;;;11.80;99.90;;;;;;5072552;28;20029;-70
2023/04/21 06:19:24;;;;;;;19.25;6.75;;;11.80;99.90;;;;;;5073932;28;20021;-73
2023/04/21 06:21:50;;;;;;;20.17;6.65;;;11.80;99.90;;;;;;5073418;28;20025;-70
2023/04/21 06:24:23;;;;;;;18.83;6.18;;;11.90;99.90;;;;;;5073535;28;20040;-72
2023/04/21 06:26:49;;;;;;;20.20;6.28;;;11.90;99.90;;;;;;5073402;28;20339;-72
2023/04/21 06:29:14;;;;;;;19.23;6.80;;;12.00;99.90;;;;;;5073689;28;20039;-73
2023/04/21 06:31:40;;;;;;;27.25;7.28;;;12.00;99.90;;;;;;5073161;28;20051;-72
2023/04/21 06:34:06;;;;;;;24.55;7.45;;;12.00;99.90;;;;;;5074227;28;20406;-73
2023/04/21 06:36:31;;;;;;;17.73;6.75;;;12.10;99.90;;;;;;5073216;28;20036;-73
2023/04/21 06:38:57;;;;;;;16.42;5.97;;;12.10;99.90;;;;;;5073352;28;20025;-72
2023/04/21 06:41:23;;;;;;;17.90;6.43;;;12.20;99.90;;;;;;5073053;28;20028;-71
2023/04/21 06:43:48;;;;;;;19.65;6.95;;;12.30;99.90;;;;;;5074014;28;20039;-73
2023/04/21 06:46:14;;;;;;;19.65;7.60;;;12.30;99.90;;;;;;5074972;28;20012;-74
2023/04/21 06:48:40;;;;;;;18.67;6.93;;;12.40;99.90;;;;;;5074066;28;20125;-73
2023/04/21 06:51:06;;;;;;;19.55;6.68;;;12.50;99.90;;;;;;5073097;28;20093;-71
2023/04/21 06:53:31;;;;;;;15.70;6.97;;;12.50;99.90;;;;;;5074508;28;20024;-74
2023/04/21 06:55:57;;;;;;;21.60;6.70;;;12.60;99.90;;;;;;5073504;28;20063;-73
2023/04/21 06:58:23;;;;;;;15.13;6.07;;;12.70;99.90;;;;;;5075244;28;20444;-73
2023/04/21 07:00:49;;;;;;;13.73;6.30;;;12.80;99.90;;;;;;5072636;28;20090;-73
2023/04/21 07:03:14;;;;;;;23.83;6.68;;;12.80;99.90;;;;;;5088161;28;20446;-71
2023/04/21 07:05:40;;;;;;;16.35;6.93;;;12.90;99.90;;;;;;5094424;28;20089;-71
2023/04/21 07:08:06;;;;;;;13.80;6.38;;;12.90;99.80;;;;;;5094200;28;20036;-71
2023/04/21 07:10:31;;;;;;;14.07;6.22;;;13.10;99.70;;;;;;5093970;28;20024;-72
2023/04/21 07:12:57;;;;;;;22.80;8.13;;;13.20;99.60;;;;;;5093489;28;20429;-70
2023/04/21 07:15:22;;;;;;;17.30;7.35;;;13.30;99.60;;;;;;5093896;28;20157;-70
2023/04/21 07:17:48;;;;;;;21.73;6.93;;;13.60;99.50;;;;;;5094273;28;20170;-70
2023/04/21 07:20:14;;;;;;;17.15;6.57;;;14.10;98.70;;;;;;5093110;28;20362;-70
2023/04/21 07:22:39;;;;;;;16.17;6.63;;;14.50;98.40;;;;;;5092551;28;20031;-70
2023/04/21 07:25:06;;;;;;;14.55;6.25;;;15.00;97.60;;;;;;5093968;28;20024;-69
2023/04/21 07:27:37;;;;;;;18.80;6.60;;;15.30;97.10;;;;;;5093941;28;20036;-70
2023/04/21 07:30:04;;;;;;;20.52;7.07;;;15.60;96.70;;;;;;5093581;28;20122;-69
2023/04/21 07:32:30;;;;;;;18.73;6.47;;;15.70;96.20;;;;;;5092990;28;20148;-71
2023/04/21 07:34:55;;;;;;;17.40;7.15;;;15.90;96.50;;;;;;5091277;28;20153;-71
2023/04/21 07:37:21;;;;;;;15.55;6.07;;;16.50;96.30;;;;;;5092676;28;20327;-70
2023/04/21 07:39:47;;;;;;;11.60;5.82;;;17.20;95.50;;;;;;5091939;28;20028;-70
2023/04/21 07:42:13;;;;;;;19.23;6.10;;;17.90;94.60;;;;;;5092863;28;20500;-70
2023/04/21 07:44:39;;;;;;;22.10;6.10;;;18.40;93.30;;;;;;5092967;28;20028;-70
2023/04/21 07:47:05;;;;;;;13.68;6.35;;;19.10;92.90;;;;;;5092365;28;20284;-70
2023/04/21 07:49:31;;;;;;;24.13;6.65;;;19.60;92.00;;;;;;5092691;28;20036;-68
2023/04/21 07:51:56;;;;;;;13.25;5.78;;;20.10;90.60;;;;;;5092405;28;20111;-71
2023/04/21 07:54:22;;;;;;;19.27;6.35;;;20.30;90.50;;;;;;5093288;28;20059;-68
2023/04/21 07:56:47;;;;;;;22.48;6.38;;;20.30;90.20;;;;;;5092020;28;20024;-69
2023/04/21 07:59:13;;;;;;;18.75;6.32;;;19.90;90.20;;;;;;5091601;28;20035;-68
2023/04/21 08:01:40;;;;;;;12.93;6.03;;;19.70;90.40;;;;;;5091218;28;20024;-67
2023/04/21 08:04:05;;;;;;;20.25;6.07;;;19.50;90.60;;;;;;5092957;28;20020;-69
2023/04/21 08:06:32;;;;;;;14.50;6.30;;;19.60;90.20;;;;;;5092305;28;20040;-70
2023/04/21 08:08:58;;;;;;;16.10;5.80;;;20.20;90.50;;;;;;5093349;28;20101;-68
2023/04/21 08:11:23;;;;;;;12.63;5.57;;;21.00;89.20;;;;;;5090867;28;20028;-67
2023/04/21 08:13:50;;;;;;;17.17;6.00;;;21.80;86.00;;;;;;5092523;28;20089;-69
2023/04/21 08:16:16;;;;;;;14.35;5.88;;;23.00;84.70;;;;;;5093263;28;20017;-68
2023/04/21 08:18:41;;;;;;;15.40;5.35;;;23.80;82.40;;;;;;5091675;28;20047;-70
2023/04/21 08:21:07;;;;;;;12.80;5.78;;;24.00;80.30;;;;;;5092681;28;20054;-70
2023/04/21 08:23:33;;;;;;;14.00;6.20;;;24.50;78.00;;;;;;5092773;28;20081;-70
2023/04/21 08:26:00;;;;;;;13.30;5.47;;;24.50;77.20;;;;;;5091157;28;20039;-70
2023/04/21 08:28:26;;;;;;;16.98;6.47;;;25.30;76.80;;;;;;5092393;28;20274;-69
2023/04/21 08:30:52;;;;;;;13.25;5.50;;;25.90;74.30;;;;;;5093321;28;20028;-70
2023/04/21 08:33:17;;;;;;;17.63;5.78;;;26.20;71.10;;;;;;5092818;28;20081;-69
2023/04/21 08:35:43;;;;;;;19.20;5.80;;;26.40;71.80;;;;;;5092854;28;20039;-70
2023/04/21 08:38:08;;;;;;;10.57;5.38;;;26.60;68.40;;;;;;5092376;28;20035;-70
2023/04/21 08:40:37;;;;;;;19.20;5.53;;;26.90;68.80;;;;;;5092054;28;20083;-68
2023/04/21 08:43:07;;;;;;;13.20;5.75;;;27.00;66.10;;;;;;5092777;28;20027;-70
2023/04/21 08:45:33;;;;;;;15.27;5.47;;;27.10;65.90;;;;;;5091901;28;20048;-70
2023/04/21 08:48:01;;;;;;;17.60;5.80;;;27.40;63.70;;;;;;5091356;28;20032;-68
2023/04/21 08:50:29;;;;;;;12.80;5.53;;;27.60;63.70;;;;;;5091644;28;20222;-70
2023/04/21 08:52:56;;;;;;;15.00;5.75;;;28.20;62.40;;;;;;5091758;28;20020;-70
2023/04/21 08:55:29;;;;;;;16.83;6.00;;;28.50;60.90;;;;;;5092442;28;20113;-69
2023/04/21 08:57:55;;;;;;;11.25;5.40;;;28.50;59.70;;;;;;5090976;28;20035;-71
2023/04/21 09:00:22;;;;;;;16.13;5.90;;;28.40;58.80;;;;;;5091028;28;20040;-69
2023/04/21 09:02:58;;;;;;;18.35;8.20;;;28.70;57.80;;;;;;5091463;28;20040;-68
2023/04/21 09:05:26;;;;;;;11.57;5.00;;;29.30;56.50;;;;;;5091877;28;20105;-70
2023/04/21 09:08:06;;;;;;;11.98;5.25;;;29.40;56.80;;;;;;5091599;28;20467;-71
2023/04/21 09:10:31;;;;;;;16.45;5.30;;;29.70;55.60;;;;;;5092099;28;20036;-71
2023/04/21 09:12:57;;;;;;;18.20;5.85;;;29.40;54.90;;;;;;5091048;28;20097;-70
2023/04/21 09:15:22;;;;;;;11.20;5.03;;;30.30;54.80;;;;;;5091210;28;20024;-70
2023/04/21 09:17:55;;;;;;;11.68;5.68;;;30.80;54.20;;;;;;5090839;28;20032;-72
2023/04/21 09:20:21;;;;;;;13.77;4.68;;;31.00;51.20;;;;;;5089572;28;20302;-71
2023/04/21 09:22:50;;;;;;;14.18;5.45;;;30.90;51.90;;;;;;5090755;28;20028;-68
2023/04/21 09:25:18;;;;;;;15.75;5.22;;;31.40;51.40;;;;;;5091943;28;20044;-69
2023/04/21 09:27:45;;;;;;;17.85;5.32;;;31.80;48.30;;;;;;5090844;28;20063;-69
2023/04/21 09:30:11;;;;;;;12.90;5.32;;;32.20;47.30;;;;;;5090683;28;20035;-70
2023/04/21 09:32:40;;;;;;;16.08;5.82;;;31.90;47.50;;;;;;5090909;28;20044;-69
2023/04/21 09:35:09;;;;;;;10.45;4.45;;;32.10;46.90;;;;;;5090624;28;20039;-70
2023/04/21 09:37:36;;;;;;;10.90;4.50;;;31.60;46.20;;;;;;5094934;28;20030;-69
2023/04/21 09:40:02;;;;;;;9.98;4.55;;;31.60;46.10;;;;;;5095112;28;20030;-69
2023/04/21 09:42:29;;;;;;;14.60;4.55;;;30.80;46.50;;;;;;5095989;28;20028;-67
2023/04/21 09:44:55;;;;;;;11.13;4.57;;;30.80;45.80;;;;;;5095993;28;20028;-68
2023/04/21 09:47:22;;;;;;;11.35;4.45;;;30.60;44.40;;;;;;5094870;28;20047;-68
2023/04/21 09:49:50;;;;;;;12.30;4.10;;;31.40;45.90;;;;;;5095352;28;20024;-67
2023/04/21 09:52:18;;;;;;;13.68;3.92;;;32.30;44.60;;;;;;5095186;28;20020;-70
2023/04/21 09:54:50;;;;;;;13.68;4.68;;;32.00;44.40;;;;;;5094928;28;20043;-68
2023/04/21 09:57:27;;;;;;;12.45;5.00;;;31.20;44.70;;;;;;5094151;28;20038;-69
2023/04/21 09:59:58;;;;;;;15.52;4.30;;;31.00;44.40;;;;;;5094015;28;20024;-69
2023/04/21 10:02:28;;;;;;;14.00;4.45;;;31.90;44.70;;;;;;5094114;28;20028;-69
2023/04/21 10:04:54;;;;;;;14.55;3.70;;;31.70;42.00;;;;;;5093964;28;20036;-69
2023/04/21 10:07:20;;;;;;;12.80;3.92;;;31.80;43.00;;;;;;5094504;28;20073;-68
2023/04/21 10:09:53;;;;;;;8.18;3.75;;;32.00;41.60;;;;;;5093984;28;20097;-69
2023/04/21 10:12:19;;;;;;;12.13;3.97;;;31.80;42.40;;;;;;5093874;28;20492;-69
2023/04/21 10:14:50;;;;;;;10.15;3.92;;;31.70;41.40;;;;;;5093733;28;20028;-70
2023/04/21 10:17:15;;;;;;;8.77;3.78;;;31.80;40.60;;;;;;5093613;28;20024;-70
2023/04/21 10:19:49;;;;;;;9.63;4.07;;;31.40;41.10;;;;;;5093881;28;20602;-69
2023/04/21 10:22:27;;;;;;;13.75;4.72;;;31.90;41.00;;;;;;5092975;28;20023;-69
2023/04/21 10:24:55;;;;;;;8.32;3.28;;;31.70;40.40;;;;;;5093591;28;20028;-69
2023/04/21 10:27:50;;;;;;;10.85;3.70;;;32.00;40.00;;;;;;5092339;28;20552;-68
2023/04/21 10:30:24;;;;;;;15.68;4.38;;;31.50;40.60;;;;;;5084221;28;20060;-70
2023/04/21 10:33:10;;;;;;;8.20;3.30;;;31.50;39.50;;;;;;5093038;28;20132;-69
2023/04/21 10:36:00;;;;;;;10.05;3.78;;;30.70;40.80;;;;;;5092873;28;20481;-67
2023/04/21 10:38:40;;;;;;;14.43;4.38;;;30.70;40.40;;;;;;5093258;28;20055;-68
2023/04/21 10:41:26;;;;;;;8.02;4.10;;;30.10;41.60;;;;;;5092183;28;20028;-67
2023/04/21 10:43:52;;;;;;;15.10;4.45;;;29.10;41.90;;;;;;5092975;28;20032;-67
2023/04/21 10:46:35;;;;;;;13.88;3.85;;;29.00;42.20;;;;;;5093572;28;20358;-70
2023/04/21 10:49:08;;;;;;;8.52;3.75;;;28.70;43.30;;;;;;5092215;28;20044;-70
2023/04/21 10:52:03;;;;;;;11.05;4.35;;;28.20;43.20;;;;;;5093338;28;20519;-70
2023/04/21 10:55:02;;;;;;;10.73;4.38;;;27.40;44.50;;;;;;5088038;28;20032;-70
2023/04/21 10:57:32;;;;;;;11.73;4.60;;;26.70;43.70;;;;;;5093005;28;20082;-69
2023/04/21 10:59:58;;;;;;;8.55;2.97;;;26.70;44.20;;;;;;5091725;28;20033;-68
2023/04/21 11:02:24;;;;;;;14.82;3.42;;;26.20;43.90;;;;;;5093076;28;20024;-71
2023/04/21 11:04:51;;;;;;;10.98;3.53;;;26.00;43.60;;;;;;5093986;28;20020;-71
2023/04/21 11:07:19;;;;;;;8.75;3.38;;;25.60;43.00;;;;;;5094289;28;20026;-79
2023/04/21 11:09:46;;;;;;;12.98;4.00;;;24.90;43.50;;;;;;5092315;28;20044;-67
2023/04/21 11:12:14;;;;;;;9.53;3.60;;;24.70;44.20;;;;;;5091955;28;20044;-69
2023/04/21 11:14:42;;;;;;;10.43;4.07;;;24.40;43.30;;;;;;5092384;28;20249;-70
2023/04/21 11:17:18;;;;;;;7.95;3.72;;;24.30;44.10;;;;;;5091988;28;20138;-69
2023/04/21 11:19:49;;;;;;;12.55;3.03;;;24.00;43.70;;;;;;5093359;28;20074;-70
2023/04/21 11:22:19;;;;;;;6.93;3.28;;;24.10;42.90;;;;;;5094114;28;20028;-69
2023/04/21 11:24:46;;;;;;;11.23;3.70;;;24.00;42.40;;;;;;5092460;28;20036;-70
2023/04/21 11:27:14;;;;;;;9.52;3.88;;;23.80;43.00;;;;;;5092199;28;20074;-69
2023/04/21 11:29:40;;;;;;;11.80;3.10;;;23.70;42.60;;;;;;5092970;28;20032;-69
2023/04/21 11:32:07;;;;;;;6.20;3.22;;;23.60;42.10;;;;;;5092404;28;20032;-68
2023/04/21 11:34:35;;;;;;;9.23;3.57;;;23.40;42.50;;;;;;5093055;28;20040;-70
2023/04/21 11:37:01;;;;;;;9.73;3.38;;;23.40;43.10;;;;;;5092862;28;20035;-69
2023/04/21 11:39:26;;;;;;;9.05;3.90;;;23.40;43.50;;;;;;5091466;28;20028;-73
2023/04/21 11:41:52;;;;;;;9.65;3.95;;;23.30;43.10;;;;;;5092602;28;20353;-68
2023/04/21 11:44:36;;;;;;;7.57;3.60;;;23.20;43.40;;;;;;5092808;28;20044;-67
2023/04/21 11:47:18;;;;;;;14.07;4.65;;;23.20;44.50;;;;;;5092679;28;20058;-68
2023/04/21 11:49:46;;;;;;;13.02;4.25;;;23.10;44.70;;;;;;5093223;28;20028;-68
2023/04/21 11:52:31;;;;;;;8.15;3.58;;;23.00;44.40;;;;;;5092631;28;20028;-68
2023/04/21 11:55:04;;;;;;;12.55;3.90;;;23.00;44.30;;;;;;5093094;28;20036;-69
2023/04/21 11:57:32;;;;;;;7.10;4.30;;;22.90;44.30;;;;;;5092929;28;20028;-68
2023/04/21 11:59:59;;;;;;;13.38;5.75;;;22.80;44.70;;;;;;5092872;28;20028;-68
2023/04/21 12:02:29;;;;;;;13.48;4.78;;;22.70;45.10;;;;;;5092369;28;20055;-68
2023/04/21 12:05:08;;;;;;;9.52;4.40;;;22.70;45.50;;;;;;5092073;28;20429;-70
2023/04/21 12:07:36;;;;;;;10.20;4.10;;;22.50;45.20;;;;;;5091905;28;20012;-69
2023/04/21 12:10:09;;;;;;;21.33;8.57;;;22.50;45.30;;;;;;5092050;28;20453;-70
2023/04/21 12:12:38;;;;;;;13.70;4.20;;;22.50;45.50;;;;;;5092037;28;20035;-69
2023/04/21 12:15:05;;;;;;;7.63;3.97;;;22.50;46.00;;;;;;5091973;28;20488;-68
2023/04/21 12:17:48;;;;;;;15.30;4.23;;;22.60;46.10;;;;;;5091914;28;20042;-69
2023/04/21 12:20:18;;;;;;;8.80;4.63;;;22.50;45.60;;;;;;5091036;28;20035;-70
2023/04/21 12:22:44;;;;;;;11.07;4.50;;;22.50;46.00;;;;;;5090261;28;20446;-69
2023/04/21 12:25:10;;;;;;;11.50;4.50;;;22.50;46.00;;;;;;5091851;28;20099;-71
2023/04/21 12:27:36;;;;;;;22.17;7.70;;;22.50;46.10;;;;;;5091336;28;20116;-70
2023/04/21 12:30:02;;;;;;;8.18;4.20;;;22.50;46.40;;;;;;5091097;28;20499;-69
2023/04/21 12:32:28;;;;;;;10.35;4.43;;;22.50;46.70;;;;;;5091085;28;20095;-70
2023/04/21 12:34:54;;;;;;;9.45;3.95;;;22.50;46.50;;;;;;5091131;28;20461;-70
2023/04/21 12:37:20;;;;;;;8.88;4.82;;;22.40;46.30;;;;;;5090577;28;20024;-70
2023/04/21 12:39:46;;;;;;;11.85;4.38;;;22.50;46.20;;;;;;5091245;28;20020;-69